Williamsfield, Ohio
Current Conditions -  °F | °C
As of 12:53 AM on Wednesday 28 Jan 2015 (Local Time) from KHZY Reporting Station
Clear Clear  
Wind Chill:   Ceiling: Unl
Heat Index:   Visibility: 8mi
Dew Point: -1°   Wind: 0mph
Humidity: 88%   Direction: NA
Pressure: 30.16"   Gusts: NA
Location:  41.53°N, 80.57°W
Report Text: KHZY 280553Z AUTO 00000KT 8SM CLR M17/M18 A3016 RMK AO2 SLP231 60000 I1000 I6000 T11671183 11078 21167 51008
Loading
Personal Weather Stations






























Interactive Weather Map New forecast layout! Learn more

10-Day Weather Forecast

Advertisements
Track Severe Weather on mobile